sensor_id;sensor_type;location;lat;lon;timestamp;pressure;altitude;pressure_sealevel;temperature
15079;BMP180;6932;51.438;5.470;2023-05-03T00:01:00;102506.00;;;14.60
15079;BMP180;6932;51.438;5.470;2023-05-03T00:03:27;102500.00;;;14.50
15079;BMP180;6932;51.438;5.470;2023-05-03T00:05:53;102501.00;;;14.50
15079;BMP180;6932;51.438;5.470;2023-05-03T00:08:19;102499.00;;;14.50
15079;BMP180;6932;51.438;5.470;2023-05-03T00:10:46;102495.00;;;14.50
15079;BMP180;6932;51.438;5.470;2023-05-03T00:13:12;102494.00;;;14.50
15079;BMP180;6932;51.438;5.470;2023-05-03T00:15:38;102485.00;;;14.40
15079;BMP180;6932;51.438;5.470;2023-05-03T00:18:03;102492.00;;;14.40
15079;BMP180;6932;51.438;5.470;2023-05-03T00:20:30;102496.00;;;14.40
15079;BMP180;6932;51.438;5.470;2023-05-03T00:26:37;102499.00;;;14.30
15079;BMP180;6932;51.438;5.470;2023-05-03T00:29:03;102500.00;;;14.30
15079;BMP180;6932;51.438;5.470;2023-05-03T00:31:28;102495.00;;;14.30
15079;BMP180;6932;51.438;5.470;2023-05-03T00:33:54;102493.00;;;14.30
15079;BMP180;6932;51.438;5.470;2023-05-03T00:36:20;102492.00;;;14.30
15079;BMP180;6932;51.438;5.470;2023-05-03T00:38:46;102494.00;;;14.20
15079;BMP180;6932;51.438;5.470;2023-05-03T00:41:12;102502.00;;;14.20
15079;BMP180;6932;51.438;5.470;2023-05-03T00:43:38;102507.00;;;14.20
15079;BMP180;6932;51.438;5.470;2023-05-03T00:46:05;102502.00;;;14.20
15079;BMP180;6932;51.438;5.470;2023-05-03T00:48:33;102494.00;;;14.20
15079;BMP180;6932;51.438;5.470;2023-05-03T00:51:00;102493.00;;;14.10
15079;BMP180;6932;51.438;5.470;2023-05-03T00:53:28;102494.00;;;14.10
15079;BMP180;6932;51.438;5.470;2023-05-03T00:55:54;102504.00;;;14.10
15079;BMP180;6932;51.438;5.470;2023-05-03T00:58:20;102490.00;;;14.10
15079;BMP180;6932;51.438;5.470;2023-05-03T01:00:49;102489.00;;;14.00
15079;BMP180;6932;51.438;5.470;2023-05-03T01:03:15;102491.00;;;14.00
15079;BMP180;6932;51.438;5.470;2023-05-03T01:06:39;102485.00;;;14.00
15079;BMP180;6932;51.438;5.470;2023-05-03T01:09:32;102485.00;;;13.90
15079;BMP180;6932;51.438;5.470;2023-05-03T01:18:18;102488.00;;;13.80
15079;BMP180;6932;51.438;5.470;2023-05-03T01:20:48;102493.00;;;13.80
15079;BMP180;6932;51.438;5.470;2023-05-03T01:23:24;102489.00;;;13.80
15079;BMP180;6932;51.438;5.470;2023-05-03T01:25:52;102486.00;;;13.80
15079;BMP180;6932;51.438;5.470;2023-05-03T01:28:19;102482.00;;;13.70
15079;BMP180;6932;51.438;5.470;2023-05-03T01:30:47;102500.00;;;13.70
15079;BMP180;6932;51.438;5.470;2023-05-03T01:33:43;102487.00;;;13.70
15079;BMP180;6932;51.438;5.470;2023-05-03T01:36:22;102500.00;;;13.70
15079;BMP180;6932;51.438;5.470;2023-05-03T01:38:51;102499.00;;;13.70
15079;BMP180;6932;51.438;5.470;2023-05-03T01:41:20;102499.00;;;13.60
15079;BMP180;6932;51.438;5.470;2023-05-03T01:43:47;102502.00;;;13.60
15079;BMP180;6932;51.438;5.470;2023-05-03T01:46:14;102505.00;;;13.60
15079;BMP180;6932;51.438;5.470;2023-05-03T01:48:40;102508.00;;;13.60
15079;BMP180;6932;51.438;5.470;2023-05-03T01:51:05;102504.00;;;13.60
15079;BMP180;6932;51.438;5.470;2023-05-03T01:53:31;102495.00;;;13.60
15079;BMP180;6932;51.438;5.470;2023-05-03T01:55:57;102504.00;;;13.60
15079;BMP180;6932;51.438;5.470;2023-05-03T01:58:23;102504.00;;;13.60
15079;BMP180;6932;51.438;5.470;2023-05-03T02:00:48;102500.00;;;13.50
15079;BMP180;6932;51.438;5.470;2023-05-03T02:03:14;102515.00;;;13.50
15079;BMP180;6932;51.438;5.470;2023-05-03T02:05:40;102505.00;;;13.50
15079;BMP180;6932;51.438;5.470;2023-05-03T02:08:06;102503.00;;;13.50
15079;BMP180;6932;51.438;5.470;2023-05-03T02:10:31;102506.00;;;13.40
15079;BMP180;6932;51.438;5.470;2023-05-03T02:12:57;102498.00;;;13.40
15079;BMP180;6932;51.438;5.470;2023-05-03T02:15:23;102507.00;;;13.40
15079;BMP180;6932;51.438;5.470;2023-05-03T02:17:49;102490.00;;;13.40
15079;BMP180;6932;51.438;5.470;2023-05-03T02:20:15;102500.00;;;13.40
15079;BMP180;6932;51.438;5.470;2023-05-03T02:22:41;102499.00;;;13.40
15079;BMP180;6932;51.438;5.470;2023-05-03T02:25:07;102486.00;;;13.30
15079;BMP180;6932;51.438;5.470;2023-05-03T02:27:33;102487.00;;;13.30
15079;BMP180;6932;51.438;5.470;2023-05-03T02:29:59;102491.00;;;13.30
15079;BMP180;6932;51.438;5.470;2023-05-03T02:32:25;102484.00;;;13.30
15079;BMP180;6932;51.438;5.470;2023-05-03T02:34:51;102484.00;;;13.30
15079;BMP180;6932;51.438;5.470;2023-05-03T02:37:17;102477.00;;;13.20
15079;BMP180;6932;51.438;5.470;2023-05-03T02:39:43;102468.00;;;13.20
15079;BMP180;6932;51.438;5.470;2023-05-03T02:42:09;102474.00;;;13.20
15079;BMP180;6932;51.438;5.470;2023-05-03T02:44:35;102465.00;;;13.20
15079;BMP180;6932;51.438;5.470;2023-05-03T02:47:00;102466.00;;;13.20
15079;BMP180;6932;51.438;5.470;2023-05-03T02:49:26;102465.00;;;13.10
15079;BMP180;6932;51.438;5.470;2023-05-03T02:51:52;102453.00;;;13.10
15079;BMP180;6932;51.438;5.470;2023-05-03T02:54:18;102440.00;;;13.10
15079;BMP180;6932;51.438;5.470;2023-05-03T02:56:43;102449.00;;;13.10
15079;BMP180;6932;51.438;5.470;2023-05-03T02:59:09;102443.00;;;13.00
15079;BMP180;6932;51.438;5.470;2023-05-03T03:01:36;102443.00;;;13.00
15079;BMP180;6932;51.438;5.470;2023-05-03T03:04:02;102433.00;;;13.00
15079;BMP180;6932;51.438;5.470;2023-05-03T03:06:28;102435.00;;;13.00
15079;BMP180;6932;51.438;5.470;2023-05-03T03:08:53;102444.00;;;12.90
15079;BMP180;6932;51.438;5.470;2023-05-03T03:11:19;102429.00;;;12.90
15079;BMP180;6932;51.438;5.470;2023-05-03T03:13:45;102445.00;;;12.90
15079;BMP180;6932;51.438;5.470;2023-05-03T03:16:11;102456.00;;;12.90
15079;BMP180;6932;51.438;5.470;2023-05-03T03:18:37;102457.00;;;12.90
15079;BMP180;6932;51.438;5.470;2023-05-03T03:21:03;102459.00;;;12.90
15079;BMP180;6932;51.438;5.470;2023-05-03T03:23:29;102440.00;;;12.80
15079;BMP180;6932;51.438;5.470;2023-05-03T03:25:55;102443.00;;;12.80
15079;BMP180;6932;51.438;5.470;2023-05-03T03:28:21;102442.00;;;12.80
15079;BMP180;6932;51.438;5.470;2023-05-03T03:30:47;102452.00;;;12.80
15079;BMP180;6932;51.438;5.470;2023-05-03T03:33:13;102464.00;;;12.80
15079;BMP180;6932;51.438;5.470;2023-05-03T03:35:39;102467.00;;;12.80
15079;BMP180;6932;51.438;5.470;2023-05-03T03:38:05;102459.00;;;12.80
15079;BMP180;6932;51.438;5.470;2023-05-03T03:40:31;102465.00;;;12.80
15079;BMP180;6932;51.438;5.470;2023-05-03T03:42:56;102457.00;;;12.80
15079;BMP180;6932;51.438;5.470;2023-05-03T03:45:22;102451.00;;;12.80
15079;BMP180;6932;51.438;5.470;2023-05-03T03:47:48;102452.00;;;12.80
15079;BMP180;6932;51.438;5.470;2023-05-03T03:50:14;102452.00;;;12.80
15079;BMP180;6932;51.438;5.470;2023-05-03T03:52:40;102451.00;;;12.80
15079;BMP180;6932;51.438;5.470;2023-05-03T03:55:06;102452.00;;;12.80
15079;BMP180;6932;51.438;5.470;2023-05-03T03:57:32;102447.00;;;12.80
15079;BMP180;6932;51.438;5.470;2023-05-03T03:59:58;102447.00;;;12.70
15079;BMP180;6932;51.438;5.470;2023-05-03T04:02:25;102446.00;;;12.70
15079;BMP180;6932;51.438;5.470;2023-05-03T04:04:51;102455.00;;;12.70
15079;BMP180;6932;51.438;5.470;2023-05-03T04:07:17;102456.00;;;12.70
15079;BMP180;6932;51.438;5.470;2023-05-03T04:09:43;102468.00;;;12.70
15079;BMP180;6932;51.438;5.470;2023-05-03T04:12:09;102463.00;;;12.70
15079;BMP180;6932;51.438;5.470;2023-05-03T04:14:35;102461.00;;;12.70
15079;BMP180;6932;51.438;5.470;2023-05-03T04:17:00;102467.00;;;12.70
15079;BMP180;6932;51.438;5.470;2023-05-03T04:19:26;102461.00;;;12.70
15079;BMP180;6932;51.438;5.470;2023-05-03T04:21:53;102473.00;;;12.70
15079;BMP180;6932;51.438;5.470;2023-05-03T04:24:18;102470.00;;;12.70
15079;BMP180;6932;51.438;5.470;2023-05-03T04:26:44;102470.00;;;12.70
15079;BMP180;6932;51.438;5.470;2023-05-03T04:29:11;102468.00;;;12.70
15079;BMP180;6932;51.438;5.470;2023-05-03T04:31:39;102474.00;;;12.70
15079;BMP180;6932;51.438;5.470;2023-05-03T04:34:05;102467.00;;;12.70
15079;BMP180;6932;51.438;5.470;2023-05-03T04:36:32;102473.00;;;12.70
15079;BMP180;6932;51.438;5.470;2023-05-03T04:38:58;102472.00;;;12.70
15079;BMP180;6932;51.438;5.470;2023-05-03T04:42:11;102482.00;;;12.80
15079;BMP180;6932;51.438;5.470;2023-05-03T04:44:41;102474.00;;;12.80
15079;BMP180;6932;51.438;5.470;2023-05-03T04:47:07;102479.00;;;12.80
15079;BMP180;6932;51.438;5.470;2023-05-03T04:49:33;102489.00;;;12.90
15079;BMP180;6932;51.438;5.470;2023-05-03T04:51:59;102499.00;;;12.90
15079;BMP180;6932;51.438;5.470;2023-05-03T04:54:25;102494.00;;;12.90
15079;BMP180;6932;51.438;5.470;2023-05-03T04:56:54;102507.00;;;13.00
15079;BMP180;6932;51.438;5.470;2023-05-03T04:59:20;102513.00;;;13.00
15079;BMP180;6932;51.438;5.470;2023-05-03T05:01:45;102522.00;;;13.00
15079;BMP180;6932;51.438;5.470;2023-05-03T05:04:12;102525.00;;;13.00
15079;BMP180;6932;51.438;5.470;2023-05-03T05:06:38;102533.00;;;13.00
15079;BMP180;6932;51.438;5.470;2023-05-03T05:09:06;102526.00;;;13.00
15079;BMP180;6932;51.438;5.470;2023-05-03T05:11:32;102529.00;;;12.90
15079;BMP180;6932;51.438;5.470;2023-05-03T05:13:59;102543.00;;;12.90
15079;BMP180;6932;51.438;5.470;2023-05-03T05:16:24;102537.00;;;12.90
15079;BMP180;6932;51.438;5.470;2023-05-03T05:18:51;102541.00;;;12.90
15079;BMP180;6932;51.438;5.470;2023-05-03T05:21:16;102530.00;;;12.90
15079;BMP180;6932;51.438;5.470;2023-05-03T05:23:42;102534.00;;;12.90
15079;BMP180;6932;51.438;5.470;2023-05-03T05:26:08;102535.00;;;12.90
15079;BMP180;6932;51.438;5.470;2023-05-03T05:28:34;102530.00;;;12.90
15079;BMP180;6932;51.438;5.470;2023-05-03T05:30:59;102537.00;;;12.90
15079;BMP180;6932;51.438;5.470;2023-05-03T05:33:25;102546.00;;;13.00
15079;BMP180;6932;51.438;5.470;2023-05-03T05:35:51;102536.00;;;13.00
15079;BMP180;6932;51.438;5.470;2023-05-03T05:38:16;102528.00;;;13.20
15079;BMP180;6932;51.438;5.470;2023-05-03T05:40:43;102543.00;;;13.30
15079;BMP180;6932;51.438;5.470;2023-05-03T05:43:09;102526.00;;;13.40
15079;BMP180;6932;51.438;5.470;2023-05-03T05:45:34;102523.00;;;13.60
15079;BMP180;6932;51.438;5.470;2023-05-03T05:48:00;102531.00;;;13.70
15079;BMP180;6932;51.438;5.470;2023-05-03T05:50:26;102530.00;;;13.80
15079;BMP180;6932;51.438;5.470;2023-05-03T05:52:52;102522.00;;;13.90
15079;BMP180;6932;51.438;5.470;2023-05-03T05:55:18;102525.00;;;14.00
15079;BMP180;6932;51.438;5.470;2023-05-03T05:57:45;102531.00;;;14.10
15079;BMP180;6932;51.438;5.470;2023-05-03T06:00:11;102528.00;;;14.30
15079;BMP180;6932;51.438;5.470;2023-05-03T06:02:42;102539.00;;;14.40
15079;BMP180;6932;51.438;5.470;2023-05-03T06:05:10;102537.00;;;14.50
15079;BMP180;6932;51.438;5.470;2023-05-03T06:07:36;102541.00;;;14.60
15079;BMP180;6932;51.438;5.470;2023-05-03T06:10:02;102531.00;;;14.70
15079;BMP180;6932;51.438;5.470;2023-05-03T06:12:29;102534.00;;;14.80
15079;BMP180;6932;51.438;5.470;2023-05-03T06:14:55;102529.00;;;15.00
15079;BMP180;6932;51.438;5.470;2023-05-03T06:17:21;102536.00;;;15.10
15079;BMP180;6932;51.438;5.470;2023-05-03T06:19:51;102538.00;;;15.20
15079;BMP180;6932;51.438;5.470;2023-05-03T06:22:16;102524.00;;;15.30
15079;BMP180;6932;51.438;5.470;2023-05-03T06:24:42;102520.00;;;15.40
15079;BMP180;6932;51.438;5.470;2023-05-03T06:27:08;102520.00;;;15.50
15079;BMP180;6932;51.438;5.470;2023-05-03T06:29:34;102522.00;;;15.60
15079;BMP180;6932;51.438;5.470;2023-05-03T06:31:59;102514.00;;;15.70
15079;BMP180;6932;51.438;5.470;2023-05-03T06:34:25;102516.00;;;15.90
15079;BMP180;6932;51.438;5.470;2023-05-03T06:36:51;102519.00;;;16.00
15079;BMP180;6932;51.438;5.470;2023-05-03T06:39:17;102528.00;;;16.10
15079;BMP180;6932;51.438;5.470;2023-05-03T06:41:43;102523.00;;;16.20
15079;BMP180;6932;51.438;5.470;2023-05-03T06:44:09;102519.00;;;16.30
15079;BMP180;6932;51.438;5.470;2023-05-03T06:46:35;102525.00;;;16.40
15079;BMP180;6932;51.438;5.470;2023-05-03T06:49:00;102520.00;;;16.50
15079;BMP180;6932;51.438;5.470;2023-05-03T06:51:26;102520.00;;;16.50
15079;BMP180;6932;51.438;5.470;2023-05-03T06:53:55;102514.00;;;16.70
15079;BMP180;6932;51.438;5.470;2023-05-03T07:28:30;102506.00;;;17.60
15079;BMP180;6932;51.438;5.470;2023-05-03T07:30:56;102507.00;;;17.70
15079;BMP180;6932;51.438;5.470;2023-05-03T07:33:22;102516.00;;;17.80
15079;BMP180;6932;51.438;5.470;2023-05-03T07:35:48;102518.00;;;17.90
15079;BMP180;6932;51.438;5.470;2023-05-03T07:38:15;102507.00;;;18.00
15079;BMP180;6932;51.438;5.470;2023-05-03T07:40:41;102505.00;;;18.00
15079;BMP180;6932;51.438;5.470;2023-05-03T07:43:11;102499.00;;;18.10
15079;BMP180;6932;51.438;5.470;2023-05-03T07:45:37;102485.00;;;18.20
15079;BMP180;6932;51.438;5.470;2023-05-03T07:48:03;102487.00;;;18.20
15079;BMP180;6932;51.438;5.470;2023-05-03T07:50:29;102486.00;;;18.30
15079;BMP180;6932;51.438;5.470;2023-05-03T07:52:56;102487.00;;;18.40
15079;BMP180;6932;51.438;5.470;2023-05-03T07:55:22;102487.00;;;18.50
15079;BMP180;6932;51.438;5.470;2023-05-03T07:57:48;102492.00;;;18.60
15079;BMP180;6932;51.438;5.470;2023-05-03T08:00:14;102483.00;;;18.60
15079;BMP180;6932;51.438;5.470;2023-05-03T08:02:42;102478.00;;;18.60
15079;BMP180;6932;51.438;5.470;2023-05-03T08:05:10;102478.00;;;18.70
15079;BMP180;6932;51.438;5.470;2023-05-03T08:07:38;102475.00;;;18.80
15079;BMP180;6932;51.438;5.470;2023-05-03T08:10:05;102477.00;;;18.80
15079;BMP180;6932;51.438;5.470;2023-05-03T08:12:30;102470.00;;;18.80
15079;BMP180;6932;51.438;5.470;2023-05-03T08:14:56;102461.00;;;18.90
15079;BMP180;6932;51.438;5.470;2023-05-03T08:17:22;102462.00;;;19.00
15079;BMP180;6932;51.438;5.470;2023-05-03T08:19:49;102449.00;;;19.10
15079;BMP180;6932;51.438;5.470;2023-05-03T08:22:15;102454.00;;;19.10
15079;BMP180;6932;51.438;5.470;2023-05-03T08:24:41;102463.00;;;19.20
15079;BMP180;6932;51.438;5.470;2023-05-03T08:27:07;102453.00;;;19.20
15079;BMP180;6932;51.438;5.470;2023-05-03T08:29:35;102457.00;;;19.30
15079;BMP180;6932;51.438;5.470;2023-05-03T08:32:03;102461.00;;;19.30
15079;BMP180;6932;51.438;5.470;2023-05-03T08:34:30;102455.00;;;19.30
15079;BMP180;6932;51.438;5.470;2023-05-03T08:36:56;102447.00;;;19.30
15079;BMP180;6932;51.438;5.470;2023-05-03T08:39:22;102446.00;;;19.40
15079;BMP180;6932;51.438;5.470;2023-05-03T08:41:53;102441.00;;;19.50
15079;BMP180;6932;51.438;5.470;2023-05-03T08:44:22;102441.00;;;19.50
15079;BMP180;6932;51.438;5.470;2023-05-03T08:47:43;102445.00;;;19.70
15079;BMP180;6932;51.438;5.470;2023-05-03T08:50:11;102446.00;;;19.70
15079;BMP180;6932;51.438;5.470;2023-05-03T08:52:42;102459.00;;;19.90
15079;BMP180;6932;51.438;5.470;2023-05-03T08:55:09;102450.00;;;20.00
15079;BMP180;6932;51.438;5.470;2023-05-03T08:57:36;102441.00;;;20.00
15079;BMP180;6932;51.438;5.470;2023-05-03T09:00:02;102452.00;;;20.00
15079;BMP180;6932;51.438;5.470;2023-05-03T09:02:36;102460.00;;;20.00
15079;BMP180;6932;51.438;5.470;2023-05-03T09:08:44;102473.00;;;20.20
15079;BMP180;6932;51.438;5.470;2023-05-03T09:11:39;102475.00;;;20.30
15079;BMP180;6932;51.438;5.470;2023-05-03T09:14:13;102468.00;;;20.30
15079;BMP180;6932;51.438;5.470;2023-05-03T09:16:42;102466.00;;;20.40
15079;BMP180;6932;51.438;5.470;2023-05-03T09:19:10;102453.00;;;20.40
15079;BMP180;6932;51.438;5.470;2023-05-03T09:21:41;102450.00;;;20.40
15079;BMP180;6932;51.438;5.470;2023-05-03T09:24:18;102465.00;;;20.50
15079;BMP180;6932;51.438;5.470;2023-05-03T09:26:47;102465.00;;;20.50
15079;BMP180;6932;51.438;5.470;2023-05-03T09:29:32;102454.00;;;20.50
15079;BMP180;6932;51.438;5.470;2023-05-03T09:32:01;102456.00;;;20.50
15079;BMP180;6932;51.438;5.470;2023-05-03T09:34:30;102457.00;;;20.50
15079;BMP180;6932;51.438;5.470;2023-05-03T09:36:57;102457.00;;;20.60
15079;BMP180;6932;51.438;5.470;2023-05-03T09:39:23;102460.00;;;20.60
15079;BMP180;6932;51.438;5.470;2023-05-03T09:41:49;102446.00;;;20.70
15079;BMP180;6932;51.438;5.470;2023-05-03T09:44:16;102459.00;;;20.70
15079;BMP180;6932;51.438;5.470;2023-05-03T09:47:03;102448.00;;;20.80
15079;BMP180;6932;51.438;5.470;2023-05-03T09:49:33;102442.00;;;20.80
15079;BMP180;6932;51.438;5.470;2023-05-03T09:52:01;102452.00;;;20.90
15079;BMP180;6932;51.438;5.470;2023-05-03T09:54:28;102451.00;;;21.00
15079;BMP180;6932;51.438;5.470;2023-05-03T09:56:57;102449.00;;;21.10
15079;BMP180;6932;51.438;5.470;2023-05-03T09:59:27;102446.00;;;21.10
15079;BMP180;6932;51.438;5.470;2023-05-03T10:01:57;102446.00;;;21.20
15079;BMP180;6932;51.438;5.470;2023-05-03T10:04:26;102427.00;;;21.20
15079;BMP180;6932;51.438;5.470;2023-05-03T10:06:58;102442.00;;;21.20
15079;BMP180;6932;51.438;5.470;2023-05-03T10:09:54;102436.00;;;21.20
15079;BMP180;6932;51.438;5.470;2023-05-03T10:12:22;102423.00;;;21.10
15079;BMP180;6932;51.438;5.470;2023-05-03T10:14:53;102422.00;;;21.10
15079;BMP180;6932;51.438;5.470;2023-05-03T10:17:33;102428.00;;;21.20
15079;BMP180;6932;51.438;5.470;2023-05-03T10:20:26;102423.00;;;21.30
15079;BMP180;6932;51.438;5.470;2023-05-03T10:25:39;102418.00;;;21.40
15079;BMP180;6932;51.438;5.470;2023-05-03T10:28:08;102434.00;;;21.50
15079;BMP180;6932;51.438;5.470;2023-05-03T10:30:39;102433.00;;;21.40
15079;BMP180;6932;51.438;5.470;2023-05-03T10:35:41;102420.00;;;21.50
15079;BMP180;6932;51.438;5.470;2023-05-03T10:38:20;102423.00;;;21.60
15079;BMP180;6932;51.438;5.470;2023-05-03T10:40:47;102402.00;;;21.70
15079;BMP180;6932;51.438;5.470;2023-05-03T10:46:04;102413.00;;;21.60
15079;BMP180;6932;51.438;5.470;2023-05-03T10:48:32;102408.00;;;21.50
15079;BMP180;6932;51.438;5.470;2023-05-03T10:53:57;102423.00;;;21.30
15079;BMP180;6932;51.438;5.470;2023-05-03T10:56:23;102422.00;;;21.30
15079;BMP180;6932;51.438;5.470;2023-05-03T10:58:49;102429.00;;;21.40
15079;BMP180;6932;51.438;5.470;2023-05-03T11:01:17;102427.00;;;21.50
15079;BMP180;6932;51.438;5.470;2023-05-03T11:04:06;102443.00;;;21.60
15079;BMP180;6932;51.438;5.470;2023-05-03T11:06:39;102432.00;;;21.60
15079;BMP180;6932;51.438;5.470;2023-05-03T11:09:10;102421.00;;;21.60
15079;BMP180;6932;51.438;5.470;2023-05-03T11:11:40;102415.00;;;21.70
15079;BMP180;6932;51.438;5.470;2023-05-03T11:14:07;102412.00;;;21.70
15079;BMP180;6932;51.438;5.470;2023-05-03T11:16:37;102403.00;;;21.80
15079;BMP180;6932;51.438;5.470;2023-05-03T11:19:12;102409.00;;;21.80
15079;BMP180;6932;51.438;5.470;2023-05-03T11:21:39;102411.00;;;21.80
15079;BMP180;6932;51.438;5.470;2023-05-03T11:24:05;102404.00;;;21.70
15079;BMP180;6932;51.438;5.470;2023-05-03T11:26:38;102403.00;;;21.70
15079;BMP180;6932;51.438;5.470;2023-05-03T11:29:04;102404.00;;;21.70
15079;BMP180;6932;51.438;5.470;2023-05-03T11:31:30;102404.00;;;21.60
15079;BMP180;6932;51.438;5.470;2023-05-03T11:33:56;102403.00;;;21.60
15079;BMP180;6932;51.438;5.470;2023-05-03T11:40:05;102386.00;;;21.40
15079;BMP180;6932;51.438;5.470;2023-05-03T11:42:33;102399.00;;;21.40
15079;BMP180;6932;51.438;5.470;2023-05-03T11:44:59;102371.00;;;21.30
15079;BMP180;6932;51.438;5.470;2023-05-03T11:47:26;102377.00;;;21.30
15079;BMP180;6932;51.438;5.470;2023-05-03T11:49:56;102382.00;;;21.30
15079;BMP180;6932;51.438;5.470;2023-05-03T11:52:26;102382.00;;;21.30
15079;BMP180;6932;51.438;5.470;2023-05-03T11:54:53;102373.00;;;21.30
15079;BMP180;6932;51.438;5.470;2023-05-03T11:57:19;102374.00;;;21.30
15079;BMP180;6932;51.438;5.470;2023-05-03T11:59:46;102370.00;;;21.30
15079;BMP180;6932;51.438;5.470;2023-05-03T12:02:15;102370.00;;;21.40
15079;BMP180;6932;51.438;5.470;2023-05-03T12:04:42;102360.00;;;21.30
15079;BMP180;6932;51.438;5.470;2023-05-03T12:07:12;102356.00;;;21.30
15079;BMP180;6932;51.438;5.470;2023-05-03T12:09:39;102362.00;;;21.30
15079;BMP180;6932;51.438;5.470;2023-05-03T12:12:04;102356.00;;;21.30
15079;BMP180;6932;51.438;5.470;2023-05-03T12:14:57;102354.00;;;21.30
15079;BMP180;6932;51.438;5.470;2023-05-03T12:17:39;102341.00;;;21.30
15079;BMP180;6932;51.438;5.470;2023-05-03T12:20:20;102345.00;;;21.20
15079;BMP180;6932;51.438;5.470;2023-05-03T12:22:51;102340.00;;;21.20
15079;BMP180;6932;51.438;5.470;2023-05-03T12:25:18;102340.00;;;21.20
15079;BMP180;6932;51.438;5.470;2023-05-03T12:27:44;102337.00;;;21.20
15079;BMP180;6932;51.438;5.470;2023-05-03T12:30:10;102327.00;;;21.20
15079;BMP180;6932;51.438;5.470;2023-05-03T12:36:18;102328.00;;;21.20
15079;BMP180;6932;51.438;5.470;2023-05-03T12:38:44;102314.00;;;21.20
15079;BMP180;6932;51.438;5.470;2023-05-03T12:41:10;102314.00;;;21.20
15079;BMP180;6932;51.438;5.470;2023-05-03T12:43:36;102313.00;;;21.20
15079;BMP180;6932;51.438;5.470;2023-05-03T12:46:02;102308.00;;;21.20
15079;BMP180;6932;51.438;5.470;2023-05-03T12:48:31;102296.00;;;21.20
15079;BMP180;6932;51.438;5.470;2023-05-03T12:54:37;102289.00;;;21.10
15079;BMP180;6932;51.438;5.470;2023-05-03T12:57:06;102306.00;;;21.10
15079;BMP180;6932;51.438;5.470;2023-05-03T12:59:35;102283.00;;;21.00
15079;BMP180;6932;51.438;5.470;2023-05-03T13:05:42;102286.00;;;20.90
15079;BMP180;6932;51.438;5.470;2023-05-03T13:08:08;102284.00;;;20.90
15079;BMP180;6932;51.438;5.470;2023-05-03T13:10:36;102278.00;;;20.90
15079;BMP180;6932;51.438;5.470;2023-05-03T13:13:03;102278.00;;;20.90
15079;BMP180;6932;51.438;5.470;2023-05-03T13:15:29;102267.00;;;20.90
15079;BMP180;6932;51.438;5.470;2023-05-03T13:17:54;102265.00;;;20.90
15079;BMP180;6932;51.438;5.470;2023-05-03T13:20:20;102258.00;;;20.90
15079;BMP180;6932;51.438;5.470;2023-05-03T13:22:47;102253.00;;;20.90
15079;BMP180;6932;51.438;5.470;2023-05-03T13:25:13;102249.00;;;20.90
15079;BMP180;6932;51.438;5.470;2023-05-03T13:27:39;102259.00;;;20.90
15079;BMP180;6932;51.438;5.470;2023-05-03T13:30:06;102250.00;;;21.00
15079;BMP180;6932;51.438;5.470;2023-05-03T13:32:33;102257.00;;;21.00
15079;BMP180;6932;51.438;5.470;2023-05-03T13:34:59;102256.00;;;21.00
15079;BMP180;6932;51.438;5.470;2023-05-03T13:37:24;102255.00;;;21.00
15079;BMP180;6932;51.438;5.470;2023-05-03T13:39:50;102244.00;;;21.00
15079;BMP180;6932;51.438;5.470;2023-05-03T13:42:16;102240.00;;;21.00
15079;BMP180;6932;51.438;5.470;2023-05-03T13:44:44;102224.00;;;21.00
15079;BMP180;6932;51.438;5.470;2023-05-03T13:47:11;102231.00;;;21.00
15079;BMP180;6932;51.438;5.470;2023-05-03T13:49:37;102234.00;;;21.10
15079;BMP180;6932;51.438;5.470;2023-05-03T13:52:03;102225.00;;;21.00
15079;BMP180;6932;51.438;5.470;2023-05-03T13:54:29;102231.00;;;21.10
15079;BMP180;6932;51.438;5.470;2023-05-03T13:56:55;102217.00;;;21.10
15079;BMP180;6932;51.438;5.470;2023-05-03T13:59:20;102222.00;;;21.10
15079;BMP180;6932;51.438;5.470;2023-05-03T14:01:46;102211.00;;;21.10
15079;BMP180;6932;51.438;5.470;2023-05-03T14:04:12;102211.00;;;21.20
15079;BMP180;6932;51.438;5.470;2023-05-03T14:06:38;102198.00;;;21.20
15079;BMP180;6932;51.438;5.470;2023-05-03T14:09:04;102191.00;;;21.20
15079;BMP180;6932;51.438;5.470;2023-05-03T14:11:31;102196.00;;;21.20
15079;BMP180;6932;51.438;5.470;2023-05-03T14:13:57;102195.00;;;21.20
15079;BMP180;6932;51.438;5.470;2023-05-03T14:16:24;102201.00;;;21.20
15079;BMP180;6932;51.438;5.470;2023-05-03T14:18:52;102193.00;;;21.20
15079;BMP180;6932;51.438;5.470;2023-05-03T14:21:18;102195.00;;;21.20
15079;BMP180;6932;51.438;5.470;2023-05-03T14:23:48;102185.00;;;21.20
15079;BMP180;6932;51.438;5.470;2023-05-03T14:26:18;102180.00;;;21.20
15079;BMP180;6932;51.438;5.470;2023-05-03T14:28:44;102172.00;;;21.10
15079;BMP180;6932;51.438;5.470;2023-05-03T14:31:11;102182.00;;;21.10
15079;BMP180;6932;51.438;5.470;2023-05-03T14:33:38;102172.00;;;21.10
15079;BMP180;6932;51.438;5.470;2023-05-03T14:36:07;102168.00;;;21.10
15079;BMP180;6932;51.438;5.470;2023-05-03T14:38:34;102171.00;;;21.10
15079;BMP180;6932;51.438;5.470;2023-05-03T14:41:00;102176.00;;;21.10
15079;BMP180;6932;51.438;5.470;2023-05-03T14:43:26;102171.00;;;21.10
15079;BMP180;6932;51.438;5.470;2023-05-03T14:45:53;102162.00;;;21.10
15079;BMP180;6932;51.438;5.470;2023-05-03T14:48:18;102164.00;;;21.20
15079;BMP180;6932;51.438;5.470;2023-05-03T14:50:49;102155.00;;;21.20
15079;BMP180;6932;51.438;5.470;2023-05-03T14:53:16;102156.00;;;21.10
15079;BMP180;6932;51.438;5.470;2023-05-03T14:55:42;102152.00;;;21.20
15079;BMP180;6932;51.438;5.470;2023-05-03T14:58:08;102161.00;;;21.20
15079;BMP180;6932;51.438;5.470;2023-05-03T15:00:38;102161.00;;;21.20
15079;BMP180;6932;51.438;5.470;2023-05-03T15:03:05;102152.00;;;21.20
15079;BMP180;6932;51.438;5.470;2023-05-03T15:05:48;102143.00;;;21.20
15079;BMP180;6932;51.438;5.470;2023-05-03T15:08:17;102143.00;;;21.20
15079;BMP180;6932;51.438;5.470;2023-05-03T15:10:44;102144.00;;;21.20
15079;BMP180;6932;51.438;5.470;2023-05-03T15:13:11;102149.00;;;21.30
15079;BMP180;6932;51.438;5.470;2023-05-03T15:15:37;102142.00;;;21.30
15079;BMP180;6932;51.438;5.470;2023-05-03T15:18:05;102157.00;;;21.30
15079;BMP180;6932;51.438;5.470;2023-05-03T15:20:31;102146.00;;;21.30
15079;BMP180;6932;51.438;5.470;2023-05-03T15:22:57;102136.00;;;21.30
15079;BMP180;6932;51.438;5.470;2023-05-03T15:25:22;102134.00;;;21.40